Stations météo

réclame
Mon MeteoGroup
Grenoble le Versoud, France (7487): Température de l'air & dewpoint: 21.01.2020 14:00:00 - 27.01.2020 14:00:00 (CET)Grenoble le Versoud, France (7487): Vitesse du vent & gusts: 21.01.2020 14:00:00 - 27.01.2020 14:00:00 (CET)Grenoble le Versoud, France (7487): Direction du vent: 21.01.2020 14:00:00 - 27.01.2020 14:00:00 (CET)Grenoble le Versoud, France (7487): reduced air pressure: 21.01.2020 14:00:00 - 27.01.2020 14:00:00 (CET)Grenoble le Versoud, France (7487): Quantités de précipitations: 21.01.2020 14:00:00 - 27.01.2020 14:00:00 (CET)
Date & Time tt [°C] td [°C] ff [km/h] ff [knt] fx [km/h] fx [knt] dd ppp [hPa] rr [mm]
27.01.2020 14:00:00 6,0 5,6 0 0 5 3 N 1016,6 0,0
27.01.2020 13:00:00 5,7 5,6 0 0 8 4 N 1018,1 -
27.01.2020 12:00:00 4,7 4,6 0 0 5 3 N 1018,9 0,0
27.01.2020 11:00:00 2,5 2,4 4 2 5 3 N 1020,2 0,0
27.01.2020 10:00:00 1,3 1,2 0 0 9 5 N 1020,9 0,0
27.01.2020 09:00:00 0,5 0,4 2 1 5 3 SSE 1021,0 0,0
27.01.2020 08:00:00 0,2 0,1 0 0 5 3 N 1021,2 0,0
27.01.2020 07:00:00 0,7 0,6 2 1 5 3 SSE 1021,5 -
27.01.2020 06:00:00 1,5 1,4 4 2 8 4 ESE 1021,5 0,0
27.01.2020 05:00:00 1,1 0,8 0 0 5 3 N 1021,8 0,0
27.01.2020 04:00:00 1,4 1,1 2 1 9 5 SW 1022,0 0,0
27.01.2020 03:00:00 1,9 1,8 4 2 8 4 NE 1022,4 0,0
27.01.2020 02:00:00 2,9 2,6 0 0 5 3 N 1021,8 0,0
27.01.2020 01:00:00 3,9 3,3 0 0 4 2 N 1022,2 -
27.01.2020 00:00:00 4,8 4,4 2 1 5 3 S 1022,3 0,0
26.01.2020 23:00:00 4,5 4,1 4 2 11 6 SW 1022,3 0,8
26.01.2020 22:00:00 3,9 3,2 5 3 8 4 NNW 1022,3 0,0
26.01.2020 21:00:00 4,7 3,5 0 0 5 3 N 1021,9 0,0
26.01.2020 20:00:00 5,2 4,2 0 0 5 3 N 1021,3 0,0
26.01.2020 19:00:00 6,1 4,6 2 1 5 3 SE 1021,0 -
26.01.2020 18:00:00 6,9 4,2 0 0 8 4 N 1020,7 0,0
26.01.2020 17:00:00 8,2 4,6 5 3 9 5 NE 1020,5 0,0
26.01.2020 16:00:00 8,9 4,3 5 3 15 8 NNE 1020,3 0,0
26.01.2020 15:00:00 8,8 4,6 11 6 15 8 NNE 1020,3 0,0
26.01.2020 14:00:00 7,6 4,7 8 4 11 6 NE 1020,6 0,0
26.01.2020 13:00:00 6,2 4,2 5 3 9 5 NE 1021,2 -
26.01.2020 12:00:00 5,5 3,7 4 2 11 6 NNE 1021,9 0,0
26.01.2020 11:00:00 4,4 3,4 2 1 11 6 NE 1022,0 0,0
26.01.2020 10:00:00 3,3 2,6 5 3 11 6 E 1022,0 0,0
26.01.2020 09:00:00 2,6 2,2 5 3 13 7 ENE 1021,9 0,0
26.01.2020 08:00:00 2,0 1,6 2 1 8 4 WNW 1021,7 0,0
26.01.2020 07:00:00 1,8 1,4 5 3 8 4 NNE 1021,6 -
26.01.2020 06:00:00 1,8 1,4 2 1 5 3 NNE 1021,7 0,6
26.01.2020 05:00:00 1,3 0,6 0 0 5 3 N 1021,3 0,0
26.01.2020 04:00:00 1,0 0,4 4 2 8 4 NNE 1021,5 0,0
26.01.2020 03:00:00 0,5 0,1 2 1 8 4 NE 1021,7 0,0
26.01.2020 02:00:00 0,3 -0,4 0 0 8 4 N 1021,9 0,0
26.01.2020 01:00:00 0,9 0,0 4 2 8 4 N 1021,7 -
26.01.2020 00:00:00 1,6 1,0 4 2 5 3 E 1022,0 0,0
25.01.2020 23:00:00 1,4 0,8 0 0 5 3 N 1022,1 0,0
25.01.2020 22:00:00 0,6 -0,3 0 0 5 3 N 1022,2 0,0
25.01.2020 21:00:00 1,0 -0,5 0 0 5 3 N 1022,1 0,0
25.01.2020 20:00:00 2,7 1,4 0 0 5 3 N 1021,8 0,0
25.01.2020 19:00:00 3,3 1,0 5 3 5 3 NE 1021,5 -
25.01.2020 18:00:00 5,4 1,5 2 1 5 3 SW 1020,9 0,0
25.01.2020 17:00:00 9,4 2,3 4 2 4 2 NE 1020,5 0,0
25.01.2020 16:00:00 9,7 2,1 0 0 9 5 N 1020,8 0,0
25.01.2020 15:00:00 9,8 2,2 5 3 11 6 NNE 1021,2 0,0
25.01.2020 14:00:00 8,5 1,6 4 2 9 5 NE 1022,1 0,0
25.01.2020 13:00:00 7,6 2,7 5 3 11 6 NNE 1022,7 -
25.01.2020 12:00:00 5,3 2,5 4 2 11 6 NE 1023,5 0,0
25.01.2020 11:00:00 2,9 2,2 5 3 8 4 NE 1024,6 0,0
25.01.2020 10:00:00 1,3 1,0 0 0 4 2 N 1024,4 0,0
25.01.2020 09:00:00 -0,1 -0,4 0 0 4 2 N 1024,5 0,0
25.01.2020 08:00:00 -0,7 -1,1 2 1 4 2 NE 1024,2 0,0
25.01.2020 07:00:00 -1,2 -1,6 0 0 4 2 N 1024,1 -
25.01.2020 06:00:00 -1,3 -1,7 0 0 5 3 N 1023,8 0,0
25.01.2020 05:00:00 -0,8 -1,1 2 1 4 2 NNE 1023,8 0,0
25.01.2020 04:00:00 -0,7 -1,1 0 0 2 1 N 1024,2 0,0
25.01.2020 03:00:00 -1,3 -2,1 0 0 8 4 N 1024,5 0,0
25.01.2020 02:00:00 -1,2 -2,5 4 2 8 4 E 1024,6 0,0
25.01.2020 01:00:00 -0,2 -0,9 0 0 8 4 N 1024,3 -
25.01.2020 00:00:00 0,2 -0,8 0 0 5 3 N 1024,3 0,0
24.01.2020 23:00:00 1,2 0,3 4 2 8 4 ENE 1024,4 0,0
24.01.2020 22:00:00 1,4 -0,2 0 0 4 2 N 1024,5 0,0
24.01.2020 21:00:00 3,2 1,4 0 0 4 2 N 1024,1 0,0
24.01.2020 20:00:00 4,5 2,2 0 0 5 3 N 1024,1 0,0
24.01.2020 19:00:00 5,0 2,2 2 1 5 3 NE 1023,6 -
24.01.2020 18:00:00 6,4 2,3 0 0 4 2 N 1023,3 0,0
24.01.2020 17:00:00 7,8 1,8 0 0 9 5 N 1022,7 0,0
24.01.2020 16:00:00 7,9 1,9 8 4 13 7 NNE 1023,0 0,0
24.01.2020 15:00:00 7,2 2,1 4 2 8 4 NNE 1023,2 0,0
24.01.2020 14:00:00 5,9 1,8 4 2 9 5 NNE 1024,1 0,0
24.01.2020 13:00:00 5,0 1,5 5 3 9 5 NE 1025,4 -
24.01.2020 12:00:00 4,1 1,1 5 3 8 4 NNE 1025,9 0,0
24.01.2020 11:00:00 3,0 0,4 0 0 5 3 N 1026,6 0,0
24.01.2020 10:00:00 1,9 0,4 2 1 8 4 NE 1026,8 0,0
24.01.2020 09:00:00 0,8 -0,2 4 2 8 4 ENE 1027,0 0,0
24.01.2020 08:00:00 0,7 -0,5 5 3 9 5 ENE 1026,6 0,0
24.01.2020 07:00:00 0,5 -0,8 2 1 8 4 ESE 1026,4 -
24.01.2020 06:00:00 0,4 -0,9 5 3 18 10 NNE 1026,2 0,0
24.01.2020 05:00:00 0,4 -0,9 11 6 22 12 ENE 1026,3 0,0
24.01.2020 04:00:00 0,4 -0,5 8 4 13 7 NE 1026,9 0,0
24.01.2020 03:00:00 -0,1 -0,7 4 2 11 6 E 1027,9 0,0
24.01.2020 02:00:00 -1,4 -2,1 4 2 8 4 NNE 1028,3 0,0
24.01.2020 01:00:00 -1,4 -2,0 4 2 8 4 E 1028,5 -
24.01.2020 00:00:00 -1,5 -2,5 0 0 5 3 N 1028,7 0,0
23.01.2020 23:00:00 -1,4 -2,4 4 2 5 3 W 1028,9 0,0
23.01.2020 22:00:00 -0,1 -1,4 5 3 9 5 ENE 1028,4 0,0
23.01.2020 21:00:00 -0,3 -1,6 2 1 5 3 ENE 1028,4 0,0
23.01.2020 20:00:00 0,2 -1,7 2 1 5 3 NE 1027,8 0,0
23.01.2020 19:00:00 1,6 -0,5 0 0 5 3 N 1027,3 -
23.01.2020 18:00:00 4,4 0,7 2 1 8 4 E 1026,7 0,0
23.01.2020 17:00:00 6,1 1,2 0 0 4 2 N 1026,1 0,0
23.01.2020 16:00:00 6,9 1,8 2 1 11 6 WSW 1025,6 0,0
23.01.2020 15:00:00 7,1 0,7 9 5 13 7 NE 1025,7 0,0
23.01.2020 14:00:00 6,9 0,8 5 3 16 9 NE 1026,4 0,0
23.01.2020 13:00:00 5,5 1,0 5 3 9 5 NE 1027,3 -
23.01.2020 12:00:00 3,0 0,6 4 2 5 3 ENE 1028,2 0,0
23.01.2020 11:00:00 1,8 0,3 5 3 9 5 NNE 1028,5 0,0
23.01.2020 10:00:00 0,0 -0,6 4 2 5 3 NE 1029,0 0,0
23.01.2020 09:00:00 -1,4 -1,7 0 0 5 3 N 1029,5 0,0
23.01.2020 08:00:00 -2,4 -3,0 2 1 5 3 E 1029,7 0,0
23.01.2020 07:00:00 -2,0 -2,4 0 0 2 1 N 1029,8 -
23.01.2020 06:00:00 -2,4 -2,8 0 0 2 1 N 1029,7 0,0
23.01.2020 05:00:00 -1,9 -2,3 0 0 5 3 N 1030,0 0,0
23.01.2020 04:00:00 -1,7 -2,4 2 1 5 3 N 1030,3 0,0
23.01.2020 03:00:00 -2,1 -2,9 2 1 5 3 ENE 1030,6 0,0
23.01.2020 02:00:00 -1,3 -1,9 4 2 5 3 NE 1030,8 0,0
23.01.2020 01:00:00 -1,6 -2,2 2 1 4 2 NE 1031,4 -
23.01.2020 00:00:00 -1,7 -2,5 0 0 2 1 N 1031,6 0,0
22.01.2020 23:00:00 -1,1 -1,8 2 1 4 2 NNE 1031,7 0,0
22.01.2020 22:00:00 -1,2 -2,5 0 0 4 2 N 1031,8 0,0
22.01.2020 21:00:00 -0,2 -1,0 4 2 5 3 NE 1031,8 0,0
22.01.2020 20:00:00 0,7 -0,5 0 0 5 3 N 1031,8 0,0
22.01.2020 19:00:00 1,9 -0,2 4 2 5 3 NE 1031,7 -
22.01.2020 18:00:00 2,9 0,0 2 1 5 3 SSW 1031,2 0,0
22.01.2020 17:00:00 5,5 0,7 0 0 8 4 N 1030,8 0,0
22.01.2020 16:00:00 7,5 0,5 0 0 8 4 N 1030,9 0,0
22.01.2020 15:00:00 7,6 0,1 2 1 5 3 ENE 1031,4 0,0
22.01.2020 14:00:00 6,1 0,0 2 1 15 8 NE 1032,2 0,0
22.01.2020 13:00:00 5,1 -0,1 9 5 13 7 NE 1033,0 -
22.01.2020 12:00:00 2,8 -0,3 0 0 8 4 N 1034,4 0,0
22.01.2020 11:00:00 0,5 -1,1 5 3 9 5 E 1034,9 0,0
22.01.2020 10:00:00 -0,9 -1,9 0 0 8 4 N 1034,9 0,0
22.01.2020 09:00:00 -1,6 -2,3 5 3 9 5 NE 1034,9 0,0
22.01.2020 08:00:00 -3,1 -3,6 5 3 9 5 ENE 1035,2 0,0
22.01.2020 07:00:00 -2,8 -3,2 4 2 5 3 NE 1035,2 -
22.01.2020 06:00:00 -3,4 -4,2 2 1 5 3 NE 1035,5 0,0
22.01.2020 05:00:00 -3,0 -3,8 0 0 5 3 N 1036,0 0,0
22.01.2020 04:00:00 -2,3 -3,6 0 0 4 2 N 1036,1 0,0
22.01.2020 03:00:00 -1,4 -2,7 4 2 8 4 NE 1036,3 0,0
22.01.2020 02:00:00 -1,8 -2,6 4 2 9 5 ENE 1036,4 0,0
22.01.2020 01:00:00 -1,8 -2,6 0 0 8 4 N 1036,8 -
22.01.2020 00:00:00 -1,2 -1,9 2 1 4 2 NE 1037,2 0,0
21.01.2020 23:00:00 -1,0 -2,1 2 1 5 3 E 1037,4 0,0
21.01.2020 22:00:00 -0,8 -2,2 0 0 9 5 N 1037,5 0,0
21.01.2020 21:00:00 -0,6 -2,2 4 2 8 4 NE 1037,3 0,0
21.01.2020 20:00:00 -0,3 -2,2 2 1 5 3 ENE 1037,2 0,0
21.01.2020 19:00:00 0,9 -1,8 2 1 5 3 E 1036,7 -
21.01.2020 18:00:00 2,1 -1,5 2 1 5 3 SE 1036,6 0,0
21.01.2020 17:00:00 3,8 -1,6 4 2 8 4 NE 1036,2 0,0
21.01.2020 16:00:00 5,1 -1,6 4 2 8 4 NNE 1036,8 0,0
21.01.2020 15:00:00 4,5 -1,5 2 1 8 4 NE 1037,8 0,0
21.01.2020 14:00:00 3,4 -1,6 5 3 9 5 NNE 1038,4 0,0

tt = Température de l'air
td = dewpoint
ff = Vitesse du vent
fx = gusts
dd = Direction du vent
ppp = reduced air pressure
rr = Quantités de précipitations

stations d'obs. à proximité